Silver Cloud — C6MQ5 — position and weather

sailwx.info

Track history (hours):
 
Tides and Currents Weather Stations Pressure Air Temp Water Temp Dewpoint Dewpoint Depression Visibility Wind Speed Wind Dir Waves Ship Positions

Silver Cloud

Operator: V Ships Leisure SAM

Last reported at 2017-Jul-28 05:26 UTC. Time now 2017-Jul-28 08:36 UTC.
Position N 54°29' E 013°36'.

Length 156 m; draft 5.7 m.

Type: Passenger vessel. MMSI: 309027000.

Date/timePositionNaut miles runAvg speedWind from/ knotsBaromVisibWave heightAir tempDewpointWater temp
2017-Jul-28 05:26N 54°29' E 013°36'4 8.9
2017-Jul-28 04:57N 54°27' E 013°43'1111.6
2017-Jul-28 04:00N 54°29' E 014°02'912.5
2017-Jul-28 03:15N 54°31' E 014°17'312.5
2017-Jul-28 03:00N 54°31' E 014°22'1014.1
2017-Jul-28 02:20N 54°34' E 014°38'515.6
2017-Jul-28 02:00N 54°35' E 014°47'816.7
2017-Jul-28 01:29N 54°37' E 015°01'816.6
2017-Jul-28 01:00N 54°39' E 015°15'916.6
2017-Jul-28 00:29N 54°41' E 015°30'816.7
2017-Jul-28 00:01N 54°43' E 015°43'816.8
2017-Jul-27 23:30N 54°44' E 015°57'816.7
2017-Jul-27 23:00N 54°46' E 016°11'1916.7
2017-Jul-27 21:54N 54°50' E 016°43'816.6
2017-Jul-27 21:23N 54°52' E 016°57'616.7
2017-Jul-27 21:01N 54°53' E 017°08'1016.5
2017-Jul-27 20:23N 54°55' E 017°25'616.6
2017-Jul-27 20:00N 54°55' E 017°37'1816.4
2017-Jul-27 18:55N 54°57' E 018°07'716.5
2017-Jul-27 18:30N 54°57' E 018°19'816.2
2017-Jul-27 18:00N 54°58' E 018°33'815.7
2017-Jul-27 17:30N 54°53' E 018°44'815.9
2017-Jul-27 17:01N 54°48' E 018°55'713.4
2017-Jul-27 16:31N 54°42' E 018°59'816.2
2017-Jul-27 16:00N 54°34' E 018°52'816.2
2017-Jul-27 15:30N 54°28' E 018°43'4 8.6
2017-Jul-27 15:00N 54°24' E 018°40'0 0.3
2017-Jul-27 13:58N 54°24' E 018°40'0 0.0
2017-Jul-27 13:28N 54°24' E 018°40'0 0.0
2017-Jul-27 12:58N 54°24' E 018°40'0 0.0
2017-Jul-27 12:28N 54°24' E 018°40'0 0.0
2017-Jul-27 11:58N 54°24' E 018°40'0 0.0
2017-Jul-27 11:28N 54°24' E 018°40'0 0.0
2017-Jul-27 10:58N 54°24' E 018°40'0 0.0
2017-Jul-27 10:28N 54°24' E 018°40'0 0.0
2017-Jul-27 09:58N 54°24' E 018°40'0 0.0
2017-Jul-27 09:28N 54°24' E 018°40'0 0.0
2017-Jul-27 08:58N 54°24' E 018°40'0 0.0
2017-Jul-27 08:28N 54°24' E 018°40'0 0.0
2017-Jul-27 07:58N 54°24' E 018°40'0 0.0
2017-Jul-27 07:28N 54°24' E 018°40'0 0.0
2017-Jul-27 06:58N 54°24' E 018°40'0 0.0
2017-Jul-27 06:28N 54°24' E 018°40'0 0.0
2017-Jul-27 05:58N 54°24' E 018°40'0 0.3
2017-Jul-27 05:30N 54°24' E 018°40'2 3.0
2017-Jul-27 05:00N 54°26' E 018°39'2 4.5
2017-Jul-27 04:30N 54°28' E 018°41'713.4
2017-Jul-27 04:00N 54°33' E 018°49'714.6
2017-Jul-27 03:30N 54°39' E 018°55'714.6
2017-Jul-27 03:01N 54°46' E 019°00'714.4
2017-Jul-27 02:30N 54°52' E 018°56'714.6
2017-Jul-27 02:00N 54°59' E 018°51'714.6
2017-Jul-27 01:30N 55°06' E 018°46'814.8
2017-Jul-27 00:59N 55°13' E 018°41'5416.3
2017-Jul-26 21:41N 56°04' E 018°13'316.5
2017-Jul-26 21:30N 56°07' E 018°11'816.4
2017-Jul-26 21:00N 56°15' E 018°07'816.3
2017-Jul-26 20:30N 56°23' E 018°03'1316.3
2017-Jul-26 19:42N 56°36' E 017°59'616.5
2017-Jul-26 19:20N 56°42' E 017°57'916.4
2017-Jul-26 18:46N 56°51' E 017°54'416.1
2017-Jul-26 18:29N 56°55' E 017°52'816.3
2017-Jul-26 18:00N 57°03' E 017°50'2516.2
2017-Jul-26 16:27N 57°28' E 017°43'26 2.2
2017-Jul-26 04:41N 57°47' E 018°17'8911.2
2017-Jul-25 20:41N 59°07' E 019°33'512.4
2017-Jul-25 20:18N 59°11' E 019°37'811.0
2017-Jul-25 19:32N 59°19' E 019°45'112.1
2017-Jul-25 19:29N 59°19' E 019°45'611.6
2017-Jul-25 19:00N 59°24' E 019°51'611.5
2017-Jul-25 18:30N 59°29' E 019°56'611.5
2017-Jul-25 18:00N 59°35' E 019°58'612.2
2017-Jul-25 17:30N 59°40' E 019°52'612.5
2017-Jul-25 17:00N 59°45' E 019°44'611.5
2017-Jul-25 16:30N 59°50' E 019°39'612.9
2017-Jul-25 16:00N 59°55' E 019°46'612.3
2017-Jul-25 15:30N 60°01' E 019°51'5 9.7
2017-Jul-25 15:00N 60°05' E 019°56'0 0.3
2017-Jul-25 13:59N 60°06' E 019°56'0 0.0
2017-Jul-25 13:29N 60°06' E 019°56'0 0.0
2017-Jul-25 12:59N 60°06' E 019°56'0 0.0
2017-Jul-25 12:29N 60°06' E 019°56'0 0.0
2017-Jul-25 11:59N 60°06' E 019°56'0 0.0
2017-Jul-25 11:29N 60°06' E 019°56'0 0.0
2017-Jul-25 10:59N 60°06' E 019°56'0 0.0
2017-Jul-25 10:29N 60°06' E 019°56'0 0.0
2017-Jul-25 09:59N 60°06' E 019°56'0 0.0
2017-Jul-25 09:29N 60°06' E 019°56'0 0.0
2017-Jul-25 08:59N 60°06' E 019°56'0 0.0
2017-Jul-25 08:29N 60°06' E 019°56'0 0.0
2017-Jul-25 07:59N 60°06' E 019°56'0 0.0
2017-Jul-25 07:29N 60°06' E 019°56'0 0.0
2017-Jul-25 06:59N 60°06' E 019°56'0 0.0
2017-Jul-25 06:29N 60°06' E 019°56'0 0.0
2017-Jul-25 05:59N 60°06' E 019°56'0 0.0
2017-Jul-25 05:29N 60°06' E 019°56'0 0.0
2017-Jul-25 04:59N 60°06' E 019°56'0 0.4
2017-Jul-25 04:31N 60°06' E 019°56'4 8.2
2017-Jul-25 04:01N 60°02' E 019°52'713.5
2017-Jul-25 03:30N 59°55' E 019°48'714.2
2017-Jul-25 03:00N 59°48' E 019°45'713.6
2017-Jul-25 02:30N 59°43' E 019°55'713.6
2017-Jul-25 02:00N 59°39' E 020°04'713.0
2017-Jul-25 01:30N 59°37' E 020°16'713.6
2017-Jul-25 01:00N 59°36' E 020°30'713.6
2017-Jul-25 00:30N 59°35' E 020°43'713.8
2017-Jul-25 00:00N 59°34' E 020°56'713.8
2017-Jul-24 23:30N 59°33' E 021°10'713.8
2017-Jul-24 23:01N 59°32' E 021°23'714.0
2017-Jul-24 22:30N 59°31' E 021°37'714.0
2017-Jul-24 22:01N 59°30' E 021°51'714.1
2017-Jul-24 21:31N 59°29' E 022°04'714.0
2017-Jul-24 21:01N 59°28' E 022°18'714.2
2017-Jul-24 20:30N 59°31' E 022°31'611.8
2017-Jul-24 20:01N 59°33' E 022°42'714.4
2017-Jul-24 19:30N 59°34' E 022°56'713.6
2017-Jul-24 19:00N 59°36' E 023°09'713.9
2017-Jul-24 18:30N 59°37' E 023°23'714.0
2017-Jul-24 18:00N 59°39' E 023°36'714.0
2017-Jul-24 17:31N 59°41' E 023°49'714.2
2017-Jul-24 17:00N 59°43' E 024°02'714.3
2017-Jul-24 16:30N 59°46' E 024°16'714.3
2017-Jul-24 16:00N 59°48' E 024°29'26 8.7
2017-Jul-24 13:00N 60°10' E 024°58'0 0.0
2017-Jul-24 12:30N 60°10' E 024°58'0 0.0
2017-Jul-24 11:58N 60°10' E 024°58'0 0.0
2017-Jul-24 11:29N 60°10' E 024°58'0 0.0
2017-Jul-24 10:53N 60°10' E 024°58'0 0.0
2017-Jul-24 10:30N 60°10' E 024°58'0 0.0
2017-Jul-24 09:59N 60°10' E 024°58'0 0.0
2017-Jul-24 09:29N 60°10' E 024°58'0 0.0
2017-Jul-24 08:58N 60°10' E 024°58'0 0.0
2017-Jul-24 08:30N 60°10' E 024°58'0 0.0
2017-Jul-24 07:50N 60°10' E 024°58'0 0.0
2017-Jul-24 07:29N 60°10' E 024°58'0 0.0
2017-Jul-24 07:00N 60°10' E 024°58'0 0.0
2017-Jul-24 06:28N 60°10' E 024°58'0 0.0
2017-Jul-24 06:00N 60°10' E 024°58'0 0.0
2017-Jul-24 05:29N 60°10' E 024°58'0 0.0
2017-Jul-24 04:59N 60°10' E 024°58'0 0.0
2017-Jul-24 04:28N 60°10' E 024°58'0 0.1
2017-Jul-24 04:00N 60°10' E 024°58'5 9.2
2017-Jul-24 03:31N 60°05' E 024°58'715.0
2017-Jul-24 03:01N 59°58' E 024°57'714.9
2017-Jul-24 02:30N 59°56' E 025°11'714.7
2017-Jul-24 02:00N 59°55' E 025°26'816.6
2017-Jul-24 01:30N 59°55' E 025°43'815.4
2017-Jul-24 01:00N 59°57' E 025°58'816.4
2017-Jul-24 00:30N 59°59' E 026°14'714.7
2017-Jul-24 00:00N 60°00' E 026°28'815.6
2017-Jul-23 23:30N 60°01' E 026°44'917.5
2017-Jul-23 23:01N 59°60' E 027°01'816.6
2017-Jul-23 22:30N 60°03' E 027°16'816.3
2017-Jul-23 22:00N 60°08' E 027°30'816.7
2017-Jul-23 21:31N 60°12' E 027°44'816.0
2017-Jul-23 21:00N 60°11' E 027°60'816.4
2017-Jul-23 20:30N 60°09' E 028°16'714.5
2017-Jul-23 20:00N 60°04' E 028°28'815.4
2017-Jul-23 19:31N 60°03' E 028°43'815.7
2017-Jul-23 19:00N 60°03' E 028°59'815.9
2017-Jul-23 18:29N 60°02' E 029°15'1313.5
2017-Jul-23 17:33N 59°60' E 029°40'113.0
2017-Jul-23 17:30N 59°60' E 029°41'510.8
2017-Jul-23 17:00N 59°57' E 029°51'612.9
2017-Jul-23 16:30N 59°55' E 030°02'4 7.6
2017-Jul-23 16:00N 59°53' E 030°09'3 6.1
2017-Jul-23 15:30N 59°55' E 030°15'2 3.1
2017-Jul-23 14:58N 59°56' E 030°17'0 0.0
2017-Jul-23 14:28N 59°56' E 030°17'0 0.0
2017-Jul-23 13:58N 59°56' E 030°17'0 0.0
2017-Jul-23 13:28N 59°56' E 030°17'0 0.0
2017-Jul-23 12:58N 59°56' E 030°17'0 0.0
2017-Jul-23 12:28N 59°56' E 030°17'0 0.0
2017-Jul-23 11:58N 59°56' E 030°17'0 0.0
2017-Jul-23 11:28N 59°56' E 030°17'0 0.0
2017-Jul-23 10:58N 59°56' E 030°17'0 0.0
2017-Jul-23 10:28N 59°56' E 030°17'0 0.0
2017-Jul-23 09:58N 59°56' E 030°17'0 0.0
2017-Jul-23 09:28N 59°56' E 030°17'0 0.0
2017-Jul-23 08:58N 59°56' E 030°17'0 0.0
2017-Jul-23 08:28N 59°56' E 030°17'0 0.0
2017-Jul-23 07:58N 59°56' E 030°17'0 0.0
2017-Jul-23 07:28N 59°56' E 030°17'0 0.0
2017-Jul-23 06:52N 59°56' E 030°17'0 0.0
2017-Jul-23 06:25N 59°56' E 030°17'0 0.0
2017-Jul-23 05:58N 59°56' E 030°17'0 0.0
2017-Jul-23 05:28N 59°56' E 030°17'0 0.0
2017-Jul-23 04:58N 59°56' E 030°17'0 0.0
2017-Jul-23 04:28N 59°56' E 030°17'0 0.0
2017-Jul-23 03:58N 59°56' E 030°17'0 0.0
2017-Jul-23 03:28N 59°56' E 030°17'0 0.0
2017-Jul-23 02:58N 59°56' E 030°17'0 0.0
2017-Jul-23 02:28N 59°56' E 030°17'0 0.0
2017-Jul-23 01:58N 59°56' E 030°17'0 0.0
2017-Jul-23 01:28N 59°56' E 030°17'0 0.0
2017-Jul-23 00:58N 59°56' E 030°17'0 0.0
2017-Jul-23 00:28N 59°56' E 030°17'0 0.0
2017-Jul-22 23:58N 59°56' E 030°17'0 0.0
2017-Jul-22 23:28N 59°56' E 030°17'0 0.0
2017-Jul-22 22:58N 59°56' E 030°17'0 0.0
2017-Jul-22 22:28N 59°56' E 030°17'0 0.0
2017-Jul-22 21:58N 59°56' E 030°17'0 0.0
2017-Jul-22 21:28N 59°56' E 030°17'0 0.0
2017-Jul-22 20:58N 59°56' E 030°17'0 0.0
2017-Jul-22 20:28N 59°56' E 030°17'0 0.0
2017-Jul-22 19:58N 59°56' E 030°17'0 0.0
2017-Jul-22 19:28N 59°56' E 030°17'0 0.0
2017-Jul-22 18:58N 59°56' E 030°17'0 0.0
2017-Jul-22 18:28N 59°56' E 030°17'0 0.0
2017-Jul-22 17:58N 59°56' E 030°17'0 0.0
2017-Jul-22 17:28N 59°56' E 030°17'0 0.0
2017-Jul-22 16:58N 59°56' E 030°17'0 0.0
2017-Jul-22 16:28N 59°56' E 030°17'0 0.0
2017-Jul-22 15:58N 59°56' E 030°17'0 0.0
2017-Jul-22 15:28N 59°56' E 030°17'0 0.0
2017-Jul-22 14:55N 59°56' E 030°17'0 0.0
2017-Jul-22 13:58N 59°56' E 030°17'0 0.0
2017-Jul-22 13:28N 59°56' E 030°17'0 0.0
2017-Jul-22 12:58N 59°56' E 030°17'0 0.0
2017-Jul-22 12:28N 59°56' E 030°17'0 0.0
2017-Jul-22 11:58N 59°56' E 030°17'0 0.0
2017-Jul-22 11:28N 59°56' E 030°17'0 0.0
2017-Jul-22 10:58N 59°56' E 030°17'0 0.0
2017-Jul-22 10:28N 59°56' E 030°17'0 0.0
2017-Jul-22 09:58N 59°56' E 030°17'0 0.0
2017-Jul-22 09:28N 59°56' E 030°17'0 0.0
2017-Jul-22 08:58N 59°56' E 030°17'0 0.0
2017-Jul-22 08:28N 59°56' E 030°17'0 0.0
2017-Jul-22 07:58N 59°56' E 030°17'0 0.0
2017-Jul-22 07:28N 59°56' E 030°17'0 0.0
2017-Jul-22 06:58N 59°56' E 030°17'0 0.0
2017-Jul-22 06:28N 59°56' E 030°17'0 0.0
2017-Jul-22 05:55N 59°56' E 030°17'0 0.0
2017-Jul-22 05:28N 59°56' E 030°17'0 0.0
2017-Jul-22 04:58N 59°56' E 030°17'0 0.0
2017-Jul-22 04:28N 59°56' E 030°17'0 0.0
2017-Jul-22 03:58N 59°56' E 030°17'0 0.0
2017-Jul-22 03:28N 59°56' E 030°17'0 0.0
2017-Jul-22 02:58N 59°56' E 030°17'0 0.0
2017-Jul-22 02:28N 59°56' E 030°17'0 0.0
2017-Jul-22 01:55N 59°56' E 030°17'0 0.0
2017-Jul-22 01:28N 59°56' E 030°17'0 0.0
2017-Jul-22 00:58N 59°56' E 030°17'0 0.0
2017-Jul-22 00:28N 59°56' E 030°17'0 0.0
2017-Jul-21 23:58N 59°56' E 030°17'0 0.0
2017-Jul-21 23:28N 59°56' E 030°17'0 0.0
2017-Jul-21 22:58N 59°56' E 030°17'0 0.0
2017-Jul-21 22:28N 59°56' E 030°17'0 0.0
2017-Jul-21 21:58N 59°56' E 030°17'0 0.0
2017-Jul-21 21:28N 59°56' E 030°17'0 0.0
2017-Jul-21 20:58N 59°56' E 030°17'0 0.0
2017-Jul-21 20:28N 59°56' E 030°17'0 0.0
2017-Jul-21 19:58N 59°56' E 030°17'0 0.0
2017-Jul-21 19:28N 59°56' E 030°17'0 0.0
2017-Jul-21 18:58N 59°56' E 030°17'0 0.0
2017-Jul-21 18:28N 59°56' E 030°17'0 0.0
2017-Jul-21 17:58N 59°56' E 030°17'0 0.0
2017-Jul-21 17:28N 59°56' E 030°17'0 0.0
2017-Jul-21 16:58N 59°56' E 030°17'0 0.0
2017-Jul-21 16:28N 59°56' E 030°17'0 0.0
2017-Jul-21 15:58N 59°56' E 030°17'0 0.0
2017-Jul-21 15:28N 59°56' E 030°17'0 0.0
2017-Jul-21 14:58N 59°56' E 030°17'0 0.0
2017-Jul-21 14:28N 59°56' E 030°17'0 0.0
2017-Jul-21 13:58N 59°56' E 030°17'0 0.0
2017-Jul-21 13:28N 59°56' E 030°17'0 0.0
2017-Jul-21 12:58N 59°56' E 030°17'0 0.0
2017-Jul-21 10:40N 59°56' E 030°17'0 0.0
2017-Jul-21 10:28N 59°56' E 030°17'0 0.0
2017-Jul-21 09:58N 59°56' E 030°17'0 0.0
2017-Jul-21 09:22N 59°56' E 030°17'0 0.0
2017-Jul-21 08:52N 59°56' E 030°17'0 0.0
2017-Jul-21 08:22N 59°56' E 030°17'0 0.0
2017-Jul-21 07:58N 59°56' E 030°17'0 0.0
2017-Jul-21 07:28N 59°56' E 030°17'0 0.0
2017-Jul-21 06:58N 59°56' E 030°17'0 0.0
2017-Jul-21 06:28N 59°56' E 030°17'1 3.2
2017-Jul-21 06:00N 59°55' E 030°15'3 5.8
2017-Jul-21 05:26N 59°53' E 030°09'510.6
2017-Jul-21 05:00N 59°55' E 030°01'3112.6
2017-Jul-21 02:32N 60°02' E 029°01'213.7
2017-Jul-21 02:24N 60°02' E 028°57'513.7
2017-Jul-21 02:00N 60°02' E 028°46'713.6
2017-Jul-21 01:30N 60°02' E 028°32'713.4
2017-Jul-21 01:00N 60°05' E 028°20'713.4
2017-Jul-21 00:30N 60°08' E 028°08'713.8
2017-Jul-21 00:00N 60°10' E 027°55'612.8
2017-Jul-20 23:30N 60°09' E 027°42'713.9
2017-Jul-20 23:00N 60°06' E 027°30'714.0
2017-Jul-20 22:31N 60°02' E 027°18'714.2
2017-Jul-20 22:01N 59°59' E 027°05'713.6
2017-Jul-20 21:31N 59°59' E 026°52'815.5
2017-Jul-20 21:00N 59°59' E 026°36'612.4
2017-Jul-20 20:31N 59°58' E 026°24'714.2
2017-Jul-20 20:01N 59°56' E 026°11'815.8
2017-Jul-20 19:31N 59°54' E 025°55'612.7
2017-Jul-20 19:00N 59°52' E 025°43'714.1
2017-Jul-20 18:30N 59°50' E 025°30'714.4
2017-Jul-20 18:01N 59°48' E 025°16'714.3
2017-Jul-20 17:30N 59°46' E 025°02'714.4
2017-Jul-20 17:01N 59°43' E 024°50'714.4
2017-Jul-20 16:31N 59°37' E 024°41'714.8
2017-Jul-20 16:00N 59°30' E 024°46'3 5.7
2017-Jul-20 15:30N 59°27' E 024°46'0 0.0
2017-Jul-20 15:00N 59°27' E 024°46'0 0.0
2017-Jul-20 14:00N 59°27' E 024°46'0 0.0
2017-Jul-20 13:30N 59°27' E 024°46'0 0.0
2017-Jul-20 13:00N 59°27' E 024°46'0 0.0
2017-Jul-20 12:30N 59°27' E 024°46'0 0.0
2017-Jul-20 12:00N 59°27' E 024°46'0 0.0
2017-Jul-20 11:30N 59°27' E 024°46'0 0.0
2017-Jul-20 11:00N 59°27' E 024°46'0 0.0
2017-Jul-20 10:30N 59°27' E 024°46'0 0.0
2017-Jul-20 10:00N 59°27' E 024°46'0 0.0
2017-Jul-20 09:30N 59°27' E 024°46'0 0.0
2017-Jul-20 09:00N 59°27' E 024°46'0 0.0
2017-Jul-20 08:30N 59°27' E 024°46'0 0.0
2017-Jul-20 08:00N 59°27' E 024°46'2 4.7
2017-Jul-20 07:30N 59°29' E 024°44'611.3
2017-Jul-20 07:00N 59°30' E 024°33'714.0
2017-Jul-20 06:31N 59°30' E 024°20'714.9
2017-Jul-20 06:01N 59°30' E 024°05'714.9
2017-Jul-20 05:30N 59°29' E 023°50'714.8
2017-Jul-20 05:00N 59°28' E 023°36'714.8
2017-Jul-20 04:30N 59°28' E 023°21'714.6
2017-Jul-20 04:00N 59°27' E 023°07'714.8
2017-Jul-20 03:30N 59°26' E 022°53'714.6
2017-Jul-20 03:00N 59°24' E 022°39'714.4
2017-Jul-20 02:30N 59°22' E 022°25'714.8
2017-Jul-20 02:01N 59°21' E 022°11'714.7
2017-Jul-20 01:30N 59°21' E 021°57'714.7
2017-Jul-20 01:01N 59°20' E 021°42'714.8
2017-Jul-20 00:30N 59°19' E 021°28'815.0
2017-Jul-20 00:00N 59°18' E 021°13'815.3
2017-Jul-19 23:30N 59°18' E 020°58'815.2
2017-Jul-19 23:00N 59°17' E 020°43'815.0
2017-Jul-19 22:30N 59°16' E 020°29'815.2
2017-Jul-19 22:00N 59°15' E 020°14'815.2
2017-Jul-19 21:30N 59°15' E 019°59'815.2
2017-Jul-19 21:00N 59°14' E 019°44'815.5
2017-Jul-19 20:30N 59°14' E 019°29'815.5
2017-Jul-19 20:01N 59°13' E 019°14'714.6
2017-Jul-19 19:30N 59°16' E 019°01'610.4
2017-Jul-19 18:57N 59°18' E 018°51'713.5
2017-Jul-19 18:27N 59°23' E 018°41'711.1
2017-Jul-19 17:50N 59°26' E 018°29'3 7.9
2017-Jul-19 17:30N 59°25' E 018°24'4 6.9
2017-Jul-19 16:59N 59°22' E 018°24'510.0
2017-Jul-19 16:30N 59°21' E 018°15'4 7.9
2017-Jul-19 16:00N 59°21' E 018°07'0 0.2
2017-Jul-19 15:25N 59°21' E 018°07'0 0.0
2017-Jul-19 14:49N 59°21' E 018°07'0 0.0
2017-Jul-19 14:25N 59°21' E 018°07'0 0.0
2017-Jul-19 13:55N 59°21' E 018°07'0 0.0
2017-Jul-19 13:25N 59°21' E 018°07'0 0.0
2017-Jul-19 12:43N 59°21' E 018°07'0 0.0
2017-Jul-19 12:19N 59°21' E 018°07'0 0.0
2017-Jul-19 11:55N 59°21' E 018°07'0 0.0
2017-Jul-19 11:19N 59°21' E 018°07'0 0.0
2017-Jul-19 10:55N 59°21' E 018°07'0 0.0
2017-Jul-19 10:25N 59°21' E 018°07'0 0.0
2017-Jul-19 09:49N 59°21' E 018°07'0 0.0
2017-Jul-19 09:25N 59°21' E 018°07'0 0.0
2017-Jul-19 08:55N 59°21' E 018°07'0 0.0
2017-Jul-19 08:25N 59°21' E 018°07'0 0.0
2017-Jul-19 07:55N 59°21' E 018°07'0 0.0
2017-Jul-19 07:29N 59°21' E 018°07'0 0.0
2017-Jul-19 07:00N 59°21' E 018°07'0 0.0
2017-Jul-19 06:30N 59°21' E 018°07'0 0.0
2017-Jul-19 06:00N 59°21' E 018°07'0 0.0
2017-Jul-19 05:30N 59°21' E 018°07'1 2.8
2017-Jul-19 05:00N 59°20' E 018°10'510.9
2017-Jul-19 04:30N 59°23' E 018°19'4 7.6
2017-Jul-19 04:00N 59°23' E 018°27'4 7.2
2017-Jul-19 03:30N 59°27' E 018°26'612.0
2017-Jul-19 03:00N 59°23' E 018°35'611.9
2017-Jul-19 02:30N 59°21' E 018°47'612.0
2017-Jul-19 02:00N 59°16' E 018°54'612.6
2017-Jul-19 01:30N 59°14' E 019°05'611.2
2017-Jul-19 01:00N 59°13' E 019°16'714.0
2017-Jul-19 00:30N 59°14' E 019°29'714.0
2017-Jul-19 00:01N 59°15' E 019°42'713.8
2017-Jul-18 23:30N 59°16' E 019°56'713.8
2017-Jul-18 23:01N 59°17' E 020°09'713.8
2017-Jul-18 22:31N 59°18' E 020°23'713.9
2017-Jul-18 22:01N 59°19' E 020°36'714.0
2017-Jul-18 21:30N 59°20' E 020°50'714.3
2017-Jul-18 21:00N 59°21' E 021°03'815.0
2017-Jul-18 20:30N 59°22' E 021°18'713.8
2017-Jul-18 20:00N 59°23' E 021°31'815.4
2017-Jul-18 19:30N 59°24' E 021°46'613.0
2017-Jul-18 19:01N 59°25' E 021°59'714.2
2017-Jul-18 18:30N 59°26' E 022°13'714.4
2017-Jul-18 18:00N 59°29' E 022°26'714.5
2017-Jul-18 17:30N 59°31' E 022°39'714.4
2017-Jul-18 17:00N 59°31' E 022°54'714.5
2017-Jul-18 16:30N 59°30' E 023°08'815.2
2017-Jul-18 16:01N 59°28' E 023°22'815.5
2017-Jul-18 15:30N 59°28' E 023°37'815.4
2017-Jul-18 15:00N 59°29' E 023°52'1515.2
2017-Jul-18 14:00N 59°30' E 024°22'715.0
2017-Jul-18 13:31N 59°31' E 024°37'510.3
2017-Jul-18 13:01N 59°28' E 024°46'1 2.8
2017-Jul-18 12:30N 59°27' E 024°46'0 0.0
2017-Jul-18 12:00N 59°27' E 024°46'0 0.0
2017-Jul-18 11:30N 59°27' E 024°46'0 0.0
2017-Jul-18 11:00N 59°27' E 024°46'0 0.0
2017-Jul-18 10:30N 59°27' E 024°46'0 0.0
2017-Jul-18 10:00N 59°27' E 024°46'0 0.0
2017-Jul-18 09:30N 59°27' E 024°46'0 0.0
2017-Jul-18 09:00N 59°27' E 024°46'0 0.0
2017-Jul-18 08:30N 59°27' E 024°46'0 0.0
2017-Jul-18 08:00N 59°27' E 024°46'0 0.0
2017-Jul-18 07:30N 59°27' E 024°46'0 0.0
2017-Jul-18 07:00N 59°27' E 024°46'0 0.0
2017-Jul-18 06:30N 59°27' E 024°46'0 0.0
2017-Jul-18 06:00N 59°27' E 024°46'0 0.0
2017-Jul-18 05:30N 59°27' E 024°46'  
Track history (hours):
 
Tides and Currents Weather Stations Pressure Air Temp Water Temp Dewpoint Dewpoint Depression Visibility Wind Speed Wind Dir Waves Ship Positions

Silver Cloud

Operator: V Ships Leisure SAM

Last reported at 2017-Jul-28 05:26 UTC. Time now 2017-Jul-28 08:36 UTC.
Position N 54°29' E 013°36'.

Length 156 m; draft 5.7 m.

Type: Passenger vessel. MMSI: 309027000.

Date/timePositionNaut miles runAvg speedWind from/ knotsBaromVisibWave heightAir tempDewpointWater temp
2017-Jul-28 05:26N 54°29' E 013°36'4 8.9
2017-Jul-28 04:57N 54°27' E 013°43'1111.6
2017-Jul-28 04:00N 54°29' E 014°02'912.5
2017-Jul-28 03:15N 54°31' E 014°17'312.5
2017-Jul-28 03:00N 54°31' E 014°22'1014.1
2017-Jul-28 02:20N 54°34' E 014°38'515.6
2017-Jul-28 02:00N 54°35' E 014°47'816.7
2017-Jul-28 01:29N 54°37' E 015°01'816.6
2017-Jul-28 01:00N 54°39' E 015°15'916.6
2017-Jul-28 00:29N 54°41' E 015°30'816.7
2017-Jul-28 00:01N 54°43' E 015°43'816.8
2017-Jul-27 23:30N 54°44' E 015°57'816.7
2017-Jul-27 23:00N 54°46' E 016°11'1916.7
2017-Jul-27 21:54N 54°50' E 016°43'816.6
2017-Jul-27 21:23N 54°52' E 016°57'616.7
2017-Jul-27 21:01N 54°53' E 017°08'1016.5
2017-Jul-27 20:23N 54°55' E 017°25'616.6
2017-Jul-27 20:00N 54°55' E 017°37'1816.4
2017-Jul-27 18:55N 54°57' E 018°07'716.5
2017-Jul-27 18:30N 54°57' E 018°19'816.2
2017-Jul-27 18:00N 54°58' E 018°33'815.7
2017-Jul-27 17:30N 54°53' E 018°44'815.9
2017-Jul-27 17:01N 54°48' E 018°55'713.4
2017-Jul-27 16:31N 54°42' E 018°59'816.2
2017-Jul-27 16:00N 54°34' E 018°52'816.2
2017-Jul-27 15:30N 54°28' E 018°43'4 8.6
2017-Jul-27 15:00N 54°24' E 018°40'0 0.3
2017-Jul-27 13:58N 54°24' E 018°40'0 0.0
2017-Jul-27 13:28N 54°24' E 018°40'0 0.0
2017-Jul-27 12:58N 54°24' E 018°40'0 0.0
2017-Jul-27 12:28N 54°24' E 018°40'0 0.0
2017-Jul-27 11:58N 54°24' E 018°40'0 0.0
2017-Jul-27 11:28N 54°24' E 018°40'0 0.0
2017-Jul-27 10:58N 54°24' E 018°40'0 0.0
2017-Jul-27 10:28N 54°24' E 018°40'0 0.0
2017-Jul-27 09:58N 54°24' E 018°40'0 0.0
2017-Jul-27 09:28N 54°24' E 018°40'0 0.0
2017-Jul-27 08:58N 54°24' E 018°40'0 0.0
2017-Jul-27 08:28N 54°24' E 018°40'0 0.0
2017-Jul-27 07:58N 54°24' E 018°40'0 0.0
2017-Jul-27 07:28N 54°24' E 018°40'0 0.0
2017-Jul-27 06:58N 54°24' E 018°40'0 0.0
2017-Jul-27 06:28N 54°24' E 018°40'0 0.0
2017-Jul-27 05:58N 54°24' E 018°40'0 0.3
2017-Jul-27 05:30N 54°24' E 018°40'2 3.0
2017-Jul-27 05:00N 54°26' E 018°39'2 4.5
2017-Jul-27 04:30N 54°28' E 018°41'713.4
2017-Jul-27 04:00N 54°33' E 018°49'714.6
2017-Jul-27 03:30N 54°39' E 018°55'714.6
2017-Jul-27 03:01N 54°46' E 019°00'714.4
2017-Jul-27 02:30N 54°52' E 018°56'714.6
2017-Jul-27 02:00N 54°59' E 018°51'714.6
2017-Jul-27 01:30N 55°06' E 018°46'814.8
2017-Jul-27 00:59N 55°13' E 018°41'5416.3
2017-Jul-26 21:41N 56°04' E 018°13'316.5
2017-Jul-26 21:30N 56°07' E 018°11'816.4
2017-Jul-26 21:00N 56°15' E 018°07'816.3
2017-Jul-26 20:30N 56°23' E 018°03'1316.3
2017-Jul-26 19:42N 56°36' E 017°59'616.5
2017-Jul-26 19:20N 56°42' E 017°57'916.4
2017-Jul-26 18:46N 56°51' E 017°54'416.1
2017-Jul-26 18:29N 56°55' E 017°52'816.3
2017-Jul-26 18:00N 57°03' E 017°50'2516.2
2017-Jul-26 16:27N 57°28' E 017°43'26 2.2
2017-Jul-26 04:41N 57°47' E 018°17'8911.2
2017-Jul-25 20:41N 59°07' E 019°33'512.4
2017-Jul-25 20:18N 59°11' E 019°37'811.0
2017-Jul-25 19:32N 59°19' E 019°45'112.1
2017-Jul-25 19:29N 59°19' E 019°45'611.6
2017-Jul-25 19:00N 59°24' E 019°51'611.5
2017-Jul-25 18:30N 59°29' E 019°56'611.5
2017-Jul-25 18:00N 59°35' E 019°58'612.2
2017-Jul-25 17:30N 59°40' E 019°52'612.5
2017-Jul-25 17:00N 59°45' E 019°44'611.5
2017-Jul-25 16:30N 59°50' E 019°39'612.9
2017-Jul-25 16:00N 59°55' E 019°46'612.3
2017-Jul-25 15:30N 60°01' E 019°51'5 9.7
2017-Jul-25 15:00N 60°05' E 019°56'0 0.3
2017-Jul-25 13:59N 60°06' E 019°56'0 0.0
2017-Jul-25 13:29N 60°06' E 019°56'0 0.0
2017-Jul-25 12:59N 60°06' E 019°56'0 0.0
2017-Jul-25 12:29N 60°06' E 019°56'0 0.0
2017-Jul-25 11:59N 60°06' E 019°56'0 0.0
2017-Jul-25 11:29N 60°06' E 019°56'0 0.0
2017-Jul-25 10:59N 60°06' E 019°56'0 0.0
2017-Jul-25 10:29N 60°06' E 019°56'0 0.0
2017-Jul-25 09:59N 60°06' E 019°56'0 0.0
2017-Jul-25 09:29N 60°06' E 019°56'0 0.0
2017-Jul-25 08:59N 60°06' E 019°56'0 0.0
2017-Jul-25 08:29N 60°06' E 019°56'0 0.0
2017-Jul-25 07:59N 60°06' E 019°56'0 0.0
2017-Jul-25 07:29N 60°06' E 019°56'0 0.0
2017-Jul-25 06:59N 60°06' E 019°56'0 0.0
2017-Jul-25 06:29N 60°06' E 019°56'0 0.0
2017-Jul-25 05:59N 60°06' E 019°56'0 0.0
2017-Jul-25 05:29N 60°06' E 019°56'0 0.0
2017-Jul-25 04:59N 60°06' E 019°56'0 0.4
2017-Jul-25 04:31N 60°06' E 019°56'4 8.2
2017-Jul-25 04:01N 60°02' E 019°52'713.5
2017-Jul-25 03:30N 59°55' E 019°48'714.2
2017-Jul-25 03:00N 59°48' E 019°45'713.6
2017-Jul-25 02:30N 59°43' E 019°55'713.6
2017-Jul-25 02:00N 59°39' E 020°04'713.0
2017-Jul-25 01:30N 59°37' E 020°16'713.6
2017-Jul-25 01:00N 59°36' E 020°30'713.6
2017-Jul-25 00:30N 59°35' E 020°43'713.8
2017-Jul-25 00:00N 59°34' E 020°56'713.8
2017-Jul-24 23:30N 59°33' E 021°10'713.8
2017-Jul-24 23:01N 59°32' E 021°23'714.0
2017-Jul-24 22:30N 59°31' E 021°37'714.0
2017-Jul-24 22:01N 59°30' E 021°51'714.1
2017-Jul-24 21:31N 59°29' E 022°04'714.0
2017-Jul-24 21:01N 59°28' E 022°18'714.2
2017-Jul-24 20:30N 59°31' E 022°31'611.8
2017-Jul-24 20:01N 59°33' E 022°42'714.4
2017-Jul-24 19:30N 59°34' E 022°56'713.6
2017-Jul-24 19:00N 59°36' E 023°09'713.9
2017-Jul-24 18:30N 59°37' E 023°23'714.0
2017-Jul-24 18:00N 59°39' E 023°36'714.0
2017-Jul-24 17:31N 59°41' E 023°49'714.2
2017-Jul-24 17:00N 59°43' E 024°02'714.3
2017-Jul-24 16:30N 59°46' E 024°16'714.3
2017-Jul-24 16:00N 59°48' E 024°29'26 8.7
2017-Jul-24 13:00N 60°10' E 024°58'0 0.0
2017-Jul-24 12:30N 60°10' E 024°58'0 0.0
2017-Jul-24 11:58N 60°10' E 024°58'0 0.0
2017-Jul-24 11:29N 60°10' E 024°58'0 0.0
2017-Jul-24 10:53N 60°10' E 024°58'0 0.0
2017-Jul-24 10:30N 60°10' E 024°58'0 0.0
2017-Jul-24 09:59N 60°10' E 024°58'0 0.0
2017-Jul-24 09:29N 60°10' E 024°58'0 0.0
2017-Jul-24 08:58N 60°10' E 024°58'0 0.0
2017-Jul-24 08:30N 60°10' E 024°58'0 0.0
2017-Jul-24 07:50N 60°10' E 024°58'0 0.0
2017-Jul-24 07:29N 60°10' E 024°58'0 0.0
2017-Jul-24 07:00N 60°10' E 024°58'0 0.0
2017-Jul-24 06:28N 60°10' E 024°58'0 0.0
2017-Jul-24 06:00N 60°10' E 024°58'0 0.0
2017-Jul-24 05:29N 60°10' E 024°58'0 0.0
2017-Jul-24 04:59N 60°10' E 024°58'0 0.0
2017-Jul-24 04:28N 60°10' E 024°58'0 0.1
2017-Jul-24 04:00N 60°10' E 024°58'5 9.2
2017-Jul-24 03:31N 60°05' E 024°58'715.0
2017-Jul-24 03:01N 59°58' E 024°57'714.9
2017-Jul-24 02:30N 59°56' E 025°11'714.7
2017-Jul-24 02:00N 59°55' E 025°26'816.6
2017-Jul-24 01:30N 59°55' E 025°43'815.4
2017-Jul-24 01:00N 59°57' E 025°58'816.4
2017-Jul-24 00:30N 59°59' E 026°14'714.7
2017-Jul-24 00:00N 60°00' E 026°28'815.6
2017-Jul-23 23:30N 60°01' E 026°44'917.5
2017-Jul-23 23:01N 59°60' E 027°01'816.6
2017-Jul-23 22:30N 60°03' E 027°16'816.3
2017-Jul-23 22:00N 60°08' E 027°30'816.7
2017-Jul-23 21:31N 60°12' E 027°44'816.0
2017-Jul-23 21:00N 60°11' E 027°60'816.4
2017-Jul-23 20:30N 60°09' E 028°16'714.5
2017-Jul-23 20:00N 60°04' E 028°28'815.4
2017-Jul-23 19:31N 60°03' E 028°43'815.7
2017-Jul-23 19:00N 60°03' E 028°59'815.9
2017-Jul-23 18:29N 60°02' E 029°15'1313.5
2017-Jul-23 17:33N 59°60' E 029°40'113.0
2017-Jul-23 17:30N 59°60' E 029°41'510.8
2017-Jul-23 17:00N 59°57' E 029°51'612.9
2017-Jul-23 16:30N 59°55' E 030°02'4 7.6
2017-Jul-23 16:00N 59°53' E 030°09'3 6.1
2017-Jul-23 15:30N 59°55' E 030°15'2 3.1
2017-Jul-23 14:58N 59°56' E 030°17'0 0.0
2017-Jul-23 14:28N 59°56' E 030°17'0 0.0
2017-Jul-23 13:58N 59°56' E 030°17'0 0.0
2017-Jul-23 13:28N 59°56' E 030°17'0 0.0
2017-Jul-23 12:58N 59°56' E 030°17'0 0.0
2017-Jul-23 12:28N 59°56' E 030°17'0 0.0
2017-Jul-23 11:58N 59°56' E 030°17'0 0.0
2017-Jul-23 11:28N 59°56' E 030°17'0 0.0
2017-Jul-23 10:58N 59°56' E 030°17'0 0.0
2017-Jul-23 10:28N 59°56' E 030°17'0 0.0
2017-Jul-23 09:58N 59°56' E 030°17'0 0.0
2017-Jul-23 09:28N 59°56' E 030°17'0 0.0
2017-Jul-23 08:58N 59°56' E 030°17'0 0.0
2017-Jul-23 08:28N 59°56' E 030°17'0 0.0
2017-Jul-23 07:58N 59°56' E 030°17'0 0.0
2017-Jul-23 07:28N 59°56' E 030°17'0 0.0
2017-Jul-23 06:52N 59°56' E 030°17'0 0.0
2017-Jul-23 06:25N 59°56' E 030°17'0 0.0
2017-Jul-23 05:58N 59°56' E 030°17'0 0.0
2017-Jul-23 05:28N 59°56' E 030°17'0 0.0
2017-Jul-23 04:58N 59°56' E 030°17'0 0.0
2017-Jul-23 04:28N 59°56' E 030°17'0 0.0
2017-Jul-23 03:58N 59°56' E 030°17'0 0.0
2017-Jul-23 03:28N 59°56' E 030°17'0 0.0
2017-Jul-23 02:58N 59°56' E 030°17'0 0.0
2017-Jul-23 02:28N 59°56' E 030°17'0 0.0
2017-Jul-23 01:58N 59°56' E 030°17'0 0.0
2017-Jul-23 01:28N 59°56' E 030°17'0 0.0
2017-Jul-23 00:58N 59°56' E 030°17'0 0.0
2017-Jul-23 00:28N 59°56' E 030°17'0 0.0
2017-Jul-22 23:58N 59°56' E 030°17'0 0.0
2017-Jul-22 23:28N 59°56' E 030°17'0 0.0
2017-Jul-22 22:58N 59°56' E 030°17'0 0.0
2017-Jul-22 22:28N 59°56' E 030°17'0 0.0
2017-Jul-22 21:58N 59°56' E 030°17'0 0.0
2017-Jul-22 21:28N 59°56' E 030°17'0 0.0
2017-Jul-22 20:58N 59°56' E 030°17'0 0.0
2017-Jul-22 20:28N 59°56' E 030°17'0 0.0
2017-Jul-22 19:58N 59°56' E 030°17'0 0.0
2017-Jul-22 19:28N 59°56' E 030°17'0 0.0
2017-Jul-22 18:58N 59°56' E 030°17'0 0.0
2017-Jul-22 18:28N 59°56' E 030°17'0 0.0
2017-Jul-22 17:58N 59°56' E 030°17'0 0.0
2017-Jul-22 17:28N 59°56' E 030°17'0 0.0
2017-Jul-22 16:58N 59°56' E 030°17'0 0.0
2017-Jul-22 16:28N 59°56' E 030°17'0 0.0
2017-Jul-22 15:58N 59°56' E 030°17'0 0.0
2017-Jul-22 15:28N 59°56' E 030°17'0 0.0
2017-Jul-22 14:55N 59°56' E 030°17'0 0.0
2017-Jul-22 13:58N 59°56' E 030°17'0 0.0
2017-Jul-22 13:28N 59°56' E 030°17'0 0.0
2017-Jul-22 12:58N 59°56' E 030°17'0 0.0
2017-Jul-22 12:28N 59°56' E 030°17'0 0.0
2017-Jul-22 11:58N 59°56' E 030°17'0 0.0
2017-Jul-22 11:28N 59°56' E 030°17'0 0.0
2017-Jul-22 10:58N 59°56' E 030°17'0 0.0
2017-Jul-22 10:28N 59°56' E 030°17'0 0.0
2017-Jul-22 09:58N 59°56' E 030°17'0 0.0
2017-Jul-22 09:28N 59°56' E 030°17'0 0.0
2017-Jul-22 08:58N 59°56' E 030°17'0 0.0
2017-Jul-22 08:28N 59°56' E 030°17'0 0.0
2017-Jul-22 07:58N 59°56' E 030°17'0 0.0
2017-Jul-22 07:28N 59°56' E 030°17'0 0.0
2017-Jul-22 06:58N 59°56' E 030°17'0 0.0
2017-Jul-22 06:28N 59°56' E 030°17'0 0.0
2017-Jul-22 05:55N 59°56' E 030°17'0 0.0
2017-Jul-22 05:28N 59°56' E 030°17'0 0.0
2017-Jul-22 04:58N 59°56' E 030°17'0 0.0
2017-Jul-22 04:28N 59°56' E 030°17'0 0.0
2017-Jul-22 03:58N 59°56' E 030°17'0 0.0
2017-Jul-22 03:28N 59°56' E 030°17'0 0.0
2017-Jul-22 02:58N 59°56' E 030°17'0 0.0
2017-Jul-22 02:28N 59°56' E 030°17'0 0.0
2017-Jul-22 01:55N 59°56' E 030°17'0 0.0
2017-Jul-22 01:28N 59°56' E 030°17'0 0.0
2017-Jul-22 00:58N 59°56' E 030°17'0 0.0
2017-Jul-22 00:28N 59°56' E 030°17'0 0.0
2017-Jul-21 23:58N 59°56' E 030°17'0 0.0
2017-Jul-21 23:28N 59°56' E 030°17'0 0.0
2017-Jul-21 22:58N 59°56' E 030°17'0 0.0
2017-Jul-21 22:28N 59°56' E 030°17'0 0.0
2017-Jul-21 21:58N 59°56' E 030°17'0 0.0
2017-Jul-21 21:28N 59°56' E 030°17'0 0.0
2017-Jul-21 20:58N 59°56' E 030°17'0 0.0
2017-Jul-21 20:28N 59°56' E 030°17'0 0.0
2017-Jul-21 19:58N 59°56' E 030°17'0 0.0
2017-Jul-21 19:28N 59°56' E 030°17'0 0.0
2017-Jul-21 18:58N 59°56' E 030°17'0 0.0
2017-Jul-21 18:28N 59°56' E 030°17'0 0.0
2017-Jul-21 17:58N 59°56' E 030°17'0 0.0
2017-Jul-21 17:28N 59°56' E 030°17'0 0.0
2017-Jul-21 16:58N 59°56' E 030°17'0 0.0
2017-Jul-21 16:28N 59°56' E 030°17'0 0.0
2017-Jul-21 15:58N 59°56' E 030°17'0 0.0
2017-Jul-21 15:28N 59°56' E 030°17'0 0.0
2017-Jul-21 14:58N 59°56' E 030°17'0 0.0
2017-Jul-21 14:28N 59°56' E 030°17'0 0.0
2017-Jul-21 13:58N 59°56' E 030°17'0 0.0
2017-Jul-21 13:28N 59°56' E 030°17'0 0.0
2017-Jul-21 12:58N 59°56' E 030°17'0 0.0
2017-Jul-21 10:40N 59°56' E 030°17'0 0.0
2017-Jul-21 10:28N 59°56' E 030°17'0 0.0
2017-Jul-21 09:58N 59°56' E 030°17'0 0.0
2017-Jul-21 09:22N 59°56' E 030°17'0 0.0
2017-Jul-21 08:52N 59°56' E 030°17'0 0.0
2017-Jul-21 08:22N 59°56' E 030°17'0 0.0
2017-Jul-21 07:58N 59°56' E 030°17'0 0.0
2017-Jul-21 07:28N 59°56' E 030°17'0 0.0
2017-Jul-21 06:58N 59°56' E 030°17'0 0.0
2017-Jul-21 06:28N 59°56' E 030°17'1 3.2
2017-Jul-21 06:00N 59°55' E 030°15'3 5.8
2017-Jul-21 05:26N 59°53' E 030°09'510.6
2017-Jul-21 05:00N 59°55' E 030°01'3112.6
2017-Jul-21 02:32N 60°02' E 029°01'213.7
2017-Jul-21 02:24N 60°02' E 028°57'513.7
2017-Jul-21 02:00N 60°02' E 028°46'713.6
2017-Jul-21 01:30N 60°02' E 028°32'713.4
2017-Jul-21 01:00N 60°05' E 028°20'713.4
2017-Jul-21 00:30N 60°08' E 028°08'713.8
2017-Jul-21 00:00N 60°10' E 027°55'612.8
2017-Jul-20 23:30N 60°09' E 027°42'713.9
2017-Jul-20 23:00N 60°06' E 027°30'714.0
2017-Jul-20 22:31N 60°02' E 027°18'714.2
2017-Jul-20 22:01N 59°59' E 027°05'713.6
2017-Jul-20 21:31N 59°59' E 026°52'815.5
2017-Jul-20 21:00N 59°59' E 026°36'612.4
2017-Jul-20 20:31N 59°58' E 026°24'714.2
2017-Jul-20 20:01N 59°56' E 026°11'815.8
2017-Jul-20 19:31N 59°54' E 025°55'612.7
2017-Jul-20 19:00N 59°52' E 025°43'714.1
2017-Jul-20 18:30N 59°50' E 025°30'714.4
2017-Jul-20 18:01N 59°48' E 025°16'714.3
2017-Jul-20 17:30N 59°46' E 025°02'714.4
2017-Jul-20 17:01N 59°43' E 024°50'714.4
2017-Jul-20 16:31N 59°37' E 024°41'714.8
2017-Jul-20 16:00N 59°30' E 024°46'3 5.7
2017-Jul-20 15:30N 59°27' E 024°46'0 0.0
2017-Jul-20 15:00N 59°27' E 024°46'0 0.0
2017-Jul-20 14:00N 59°27' E 024°46'0 0.0
2017-Jul-20 13:30N 59°27' E 024°46'0 0.0
2017-Jul-20 13:00N 59°27' E 024°46'0 0.0
2017-Jul-20 12:30N 59°27' E 024°46'0 0.0
2017-Jul-20 12:00N 59°27' E 024°46'0 0.0
2017-Jul-20 11:30N 59°27' E 024°46'0 0.0
2017-Jul-20 11:00N 59°27' E 024°46'0 0.0
2017-Jul-20 10:30N 59°27' E 024°46'0 0.0
2017-Jul-20 10:00N 59°27' E 024°46'0 0.0
2017-Jul-20 09:30N 59°27' E 024°46'0 0.0
2017-Jul-20 09:00N 59°27' E 024°46'0 0.0
2017-Jul-20 08:30N 59°27' E 024°46'0 0.0
2017-Jul-20 08:00N 59°27' E 024°46'2 4.7
2017-Jul-20 07:30N 59°29' E 024°44'611.3
2017-Jul-20 07:00N 59°30' E 024°33'714.0
2017-Jul-20 06:31N 59°30' E 024°20'714.9
2017-Jul-20 06:01N 59°30' E 024°05'714.9
2017-Jul-20 05:30N 59°29' E 023°50'714.8
2017-Jul-20 05:00N 59°28' E 023°36'714.8
2017-Jul-20 04:30N 59°28' E 023°21'714.6
2017-Jul-20 04:00N 59°27' E 023°07'714.8
2017-Jul-20 03:30N 59°26' E 022°53'714.6
2017-Jul-20 03:00N 59°24' E 022°39'714.4
2017-Jul-20 02:30N 59°22' E 022°25'714.8
2017-Jul-20 02:01N 59°21' E 022°11'714.7
2017-Jul-20 01:30N 59°21' E 021°57'714.7
2017-Jul-20 01:01N 59°20' E 021°42'714.8
2017-Jul-20 00:30N 59°19' E 021°28'815.0
2017-Jul-20 00:00N 59°18' E 021°13'815.3
2017-Jul-19 23:30N 59°18' E 020°58'815.2
2017-Jul-19 23:00N 59°17' E 020°43'815.0
2017-Jul-19 22:30N 59°16' E 020°29'815.2
2017-Jul-19 22:00N 59°15' E 020°14'815.2
2017-Jul-19 21:30N 59°15' E 019°59'815.2
2017-Jul-19 21:00N 59°14' E 019°44'815.5
2017-Jul-19 20:30N 59°14' E 019°29'815.5
2017-Jul-19 20:01N 59°13' E 019°14'714.6
2017-Jul-19 19:30N 59°16' E 019°01'610.4
2017-Jul-19 18:57N 59°18' E 018°51'713.5
2017-Jul-19 18:27N 59°23' E 018°41'711.1
2017-Jul-19 17:50N 59°26' E 018°29'3 7.9
2017-Jul-19 17:30N 59°25' E 018°24'4 6.9
2017-Jul-19 16:59N 59°22' E 018°24'510.0
2017-Jul-19 16:30N 59°21' E 018°15'4 7.9
2017-Jul-19 16:00N 59°21' E 018°07'0 0.2
2017-Jul-19 15:25N 59°21' E 018°07'0 0.0
2017-Jul-19 14:49N 59°21' E 018°07'0 0.0
2017-Jul-19 14:25N 59°21' E 018°07'0 0.0
2017-Jul-19 13:55N 59°21' E 018°07'0 0.0
2017-Jul-19 13:25N 59°21' E 018°07'0 0.0
2017-Jul-19 12:43N 59°21' E 018°07'0 0.0
2017-Jul-19 12:19N 59°21' E 018°07'0 0.0
2017-Jul-19 11:55N 59°21' E 018°07'0 0.0
2017-Jul-19 11:19N 59°21' E 018°07'0 0.0
2017-Jul-19 10:55N 59°21' E 018°07'0 0.0
2017-Jul-19 10:25N 59°21' E 018°07'0 0.0
2017-Jul-19 09:49N 59°21' E 018°07'0 0.0
2017-Jul-19 09:25N 59°21' E 018°07'0 0.0
2017-Jul-19 08:55N 59°21' E 018°07'0 0.0
2017-Jul-19 08:25N 59°21' E 018°07'0 0.0
2017-Jul-19 07:55N 59°21' E 018°07'0 0.0
2017-Jul-19 07:29N 59°21' E 018°07'0 0.0
2017-Jul-19 07:00N 59°21' E 018°07'0 0.0
2017-Jul-19 06:30N 59°21' E 018°07'0 0.0
2017-Jul-19 06:00N 59°21' E 018°07'0 0.0
2017-Jul-19 05:30N 59°21' E 018°07'1 2.8
2017-Jul-19 05:00N 59°20' E 018°10'510.9
2017-Jul-19 04:30N 59°23' E 018°19'4 7.6
2017-Jul-19 04:00N 59°23' E 018°27'4 7.2
2017-Jul-19 03:30N 59°27' E 018°26'612.0
2017-Jul-19 03:00N 59°23' E 018°35'611.9
2017-Jul-19 02:30N 59°21' E 018°47'612.0
2017-Jul-19 02:00N 59°16' E 018°54'612.6
2017-Jul-19 01:30N 59°14' E 019°05'611.2
2017-Jul-19 01:00N 59°13' E 019°16'714.0
2017-Jul-19 00:30N 59°14' E 019°29'714.0
2017-Jul-19 00:01N 59°15' E 019°42'713.8
2017-Jul-18 23:30N 59°16' E 019°56'713.8
2017-Jul-18 23:01N 59°17' E 020°09'713.8
2017-Jul-18 22:31N 59°18' E 020°23'713.9
2017-Jul-18 22:01N 59°19' E 020°36'714.0
2017-Jul-18 21:30N 59°20' E 020°50'714.3
2017-Jul-18 21:00N 59°21' E 021°03'815.0
2017-Jul-18 20:30N 59°22' E 021°18'713.8
2017-Jul-18 20:00N 59°23' E 021°31'815.4
2017-Jul-18 19:30N 59°24' E 021°46'613.0
2017-Jul-18 19:01N 59°25' E 021°59'714.2
2017-Jul-18 18:30N 59°26' E 022°13'714.4
2017-Jul-18 18:00N 59°29' E 022°26'714.5
2017-Jul-18 17:30N 59°31' E 022°39'714.4
2017-Jul-18 17:00N 59°31' E 022°54'714.5
2017-Jul-18 16:30N 59°30' E 023°08'815.2
2017-Jul-18 16:01N 59°28' E 023°22'815.5
2017-Jul-18 15:30N 59°28' E 023°37'815.4
2017-Jul-18 15:00N 59°29' E 023°52'1515.2
2017-Jul-18 14:00N 59°30' E 024°22'715.0
2017-Jul-18 13:31N 59°31' E 024°37'510.3
2017-Jul-18 13:01N 59°28' E 024°46'1 2.8
2017-Jul-18 12:30N 59°27' E 024°46'0 0.0
2017-Jul-18 12:00N 59°27' E 024°46'0 0.0
2017-Jul-18 11:30N 59°27' E 024°46'0 0.0
2017-Jul-18 11:00N 59°27' E 024°46'0 0.0
2017-Jul-18 10:30N 59°27' E 024°46'0 0.0
2017-Jul-18 10:00N 59°27' E 024°46'0 0.0
2017-Jul-18 09:30N 59°27' E 024°46'0 0.0
2017-Jul-18 09:00N 59°27' E 024°46'0 0.0
2017-Jul-18 08:30N 59°27' E 024°46'0 0.0
2017-Jul-18 08:00N 59°27' E 024°46'0 0.0
2017-Jul-18 07:30N 59°27' E 024°46'0 0.0
2017-Jul-18 07:00N 59°27' E 024°46'0 0.0
2017-Jul-18 06:30N 59°27' E 024°46'0 0.0
2017-Jul-18 06:00N 59°27' E 024°46'0 0.0
2017-Jul-18 05:30N 59°27' E 024°46'  

Dump ship's entire track history